Time;durP1;ratioP1;P1;durP2;ratioP2;P2;SDS_P1;SDS_P2;PMS_P1;PMS_P2;Temp;Humidity;BMP_temperature;BMP_pressure;BME280_temperature;BME280_humidity;BME280_pressure;Samples;Min_cycle;Max_cycle;Signal;HPM_P1;HPM_P2
2022/11/10 00:00:53;;;;;;;12.47;3.77;;;;;;;9.46;100.00;101617.34;5279862;28;20050;-73
2022/11/10 00:03:27;;;;;;;10.07;2.90;;;;;;;9.44;100.00;101630.47;5296975;28;20440;-73
2022/11/10 00:06:01;;;;;;;17.13;3.65;;;;;;;9.47;100.00;101629.53;5297886;28;20110;-73
2022/11/10 00:08:32;;;;;;;15.50;4.25;;;;;;;9.41;100.00;101628.00;5298227;28;20047;-73
2022/11/10 00:11:05;;;;;;;15.40;3.10;;;;;;;9.41;100.00;101633.22;5298329;28;20031;-72
2022/11/10 00:16:59;;;;;;;18.60;3.93;;;;;;;9.41;100.00;101640.22;5298318;28;20768;-73
2022/11/10 00:17:16;;;;;;;14.25;3.92;;;;;;;9.38;100.00;101625.53;5298011;28;20055;-74
2022/11/10 00:19:23;;;;;;;20.97;4.23;;;;;;;9.35;100.00;101633.50;5285692;28;20028;-73
2022/11/10 00:21:55;;;;;;;16.80;3.57;;;;;;;9.34;100.00;101630.97;5297527;28;20191;-73
2022/11/10 00:24:27;;;;;;;16.73;3.37;;;;;;;9.32;100.00;101633.59;5300878;28;20565;-73
2022/11/10 00:26:58;;;;;;;19.80;3.93;;;;;;;9.33;100.00;101632.72;5299779;28;20028;-73
2022/11/10 00:29:29;;;;;;;14.33;3.77;;;;;;;9.34;100.00;101629.16;5297952;28;20024;-73
2022/11/10 00:32:00;;;;;;;17.80;4.60;;;;;;;9.29;100.00;101636.34;5297257;28;20035;-73
2022/11/10 00:34:32;;;;;;;14.50;3.33;;;;;;;9.30;100.00;101638.06;5295914;28;20034;-73
2022/11/10 00:37:03;;;;;;;13.63;3.80;;;;;;;9.25;100.00;101640.03;5297010;28;20470;-72
2022/11/10 00:39:35;;;;;;;12.47;3.80;;;;;;;9.29;100.00;101644.19;5296532;28;20032;-73
2022/11/10 00:42:07;;;;;;;14.50;4.57;;;;;;;9.20;100.00;101659.34;5297490;28;20107;-72
2022/11/10 00:44:38;;;;;;;17.27;4.83;;;;;;;9.29;100.00;101668.59;5279789;28;20027;-73
2022/11/10 00:47:09;;;;;;;16.17;4.07;;;;;;;9.25;100.00;101671.41;5301608;28;20032;-72
2022/11/10 00:49:41;;;;;;;12.73;3.30;;;;;;;9.25;100.00;101663.56;5279212;28;20027;-72
2022/11/10 00:52:12;;;;;;;16.20;3.97;;;;;;;9.22;100.00;101661.03;5300546;28;20028;-73
2022/11/10 00:54:43;;;;;;;18.17;4.23;;;;;;;9.13;100.00;101655.28;5298977;28;20101;-74
2022/11/10 00:57:14;;;;;;;18.47;4.00;;;;;;;9.19;100.00;101673.34;5298739;28;20032;-73
2022/11/10 00:59:46;;;;;;;17.40;3.60;;;;;;;9.10;100.00;101651.94;5297060;28;20024;-73
2022/11/10 01:02:17;;;;;;;16.43;3.93;;;;;;;8.99;100.00;101634.13;5296149;28;20035;-74
2022/11/10 01:04:48;;;;;;;17.23;3.47;;;;;;;9.16;100.00;101668.22;5278246;28;20031;-73
2022/11/10 01:07:19;;;;;;;12.73;2.90;;;;;;;9.11;100.00;101662.34;5297104;28;20016;-73
2022/11/10 01:09:51;;;;;;;18.07;4.43;;;;;;;9.17;100.00;101669.94;5295938;28;20055;-73
2022/11/10 01:12:22;;;;;;;15.53;3.97;;;;;;;9.19;100.00;101673.34;5296339;28;20055;-73
2022/11/10 01:14:53;;;;;;;16.00;3.77;;;;;;;9.10;100.00;101668.50;5278512;28;20032;-73
2022/11/10 01:17:25;;;;;;;19.47;3.90;;;;;;;9.14;100.00;101664.84;5277399;28;20034;-73
2022/11/10 01:19:56;;;;;;;17.60;3.57;;;;;;;9.10;100.00;101665.00;5296520;28;20024;-73
2022/11/10 01:22:27;;;;;;;13.10;3.53;;;;;;;9.06;100.00;101665.13;5296630;28;20434;-73
2022/11/10 01:24:58;;;;;;;14.90;3.23;;;;;;;9.09;100.00;101679.88;5296380;28;20500;-72
2022/11/10 01:27:30;;;;;;;16.43;3.40;;;;;;;9.13;100.00;101696.28;5296245;28;20027;-73
2022/11/10 01:30:01;;;;;;;16.97;3.83;;;;;;;9.04;100.00;101700.09;5295729;28;20028;-73
2022/11/10 01:32:32;;;;;;;12.30;3.00;;;;;;;9.13;100.00;101707.56;5295936;28;20032;-72
2022/11/10 01:35:04;;;;;;;14.10;3.50;;;;;;;9.07;100.00;101706.06;5278361;28;20039;-72
2022/11/10 01:37:36;;;;;;;16.97;4.00;;;;;;;9.10;100.00;101702.47;5277805;28;20074;-72
2022/11/10 01:40:08;;;;;;;16.33;4.07;;;;;;;9.07;100.00;101710.44;5296406;28;20059;-72
2022/11/10 01:42:53;;;;;;;17.47;4.53;;;;;;;9.10;100.00;101715.53;5295541;28;20028;-73
2022/11/10 01:45:24;;;;;;;18.27;4.30;;;;;;;9.06;100.00;101719.16;5277876;28;20032;-73
2022/11/10 01:48:00;;;;;;;13.87;3.60;;;;;;;9.07;100.00;101711.28;5293669;28;20024;-73
2022/11/10 01:50:36;;;;;;;15.93;3.50;;;;;;;9.02;100.00;101697.56;5295447;28;20552;-73
2022/11/10 01:53:16;;;;;;;14.83;4.50;;;;;;;9.04;100.00;101705.31;5295287;28;20046;-73
2022/11/10 01:55:49;;;;;;;17.60;4.73;;;;;;;8.96;100.00;101695.16;5295947;28;20024;-73
2022/11/10 01:58:25;;;;;;;16.57;4.07;;;;;;;8.93;100.00;101705.75;5295932;28;20085;-73
2022/11/10 02:00:56;;;;;;;15.63;3.70;;;;;;;8.99;100.00;101697.66;5295607;28;20066;-73
2022/11/10 02:03:39;;;;;;;11.60;3.10;;;;;;;8.98;100.00;101700.31;5276809;28;20028;-73
2022/11/10 02:06:12;;;;;;;18.17;5.13;;;;;;;8.99;100.00;101702.03;5296489;28;20031;-73
2022/11/10 02:08:45;;;;;;;23.57;5.40;;;;;;;9.01;100.00;101702.81;5299462;28;20127;-74
2022/11/10 02:11:16;;;;;;;26.97;5.43;;;;;;;8.99;100.00;101715.09;5295496;28;20111;-73
2022/11/10 02:13:48;;;;;;;18.40;3.73;;;;;;;8.91;100.00;101711.03;5295503;28;20107;-73
2022/11/10 02:16:20;;;;;;;22.40;3.90;;;;;;;8.93;100.00;101698.75;5295916;28;20040;-73
2022/11/10 02:18:52;;;;;;;15.33;3.80;;;;;;;8.90;100.00;101698.84;5294528;28;20028;-73
2022/11/10 02:21:23;;;;;;;19.40;4.17;;;;;;;8.96;100.00;101713.44;5295257;28;20508;-73
2022/11/10 02:23:54;;;;;;;12.07;3.20;;;;;;;8.95;100.00;101717.00;5311479;28;20039;-73
2022/11/10 02:26:28;;;;;;;15.80;3.47;;;;;;;8.95;100.00;101722.22;5277524;28;20031;-73
2022/11/10 02:29:00;;;;;;;22.35;3.90;;;;;;;8.98;100.00;101726.44;5295213;28;20040;-73
2022/11/10 02:31:31;;;;;;;24.00;4.60;;;;;;;8.92;100.00;101730.19;5295241;28;20016;-72
2022/11/10 02:34:02;;;;;;;20.47;4.20;;;;;;;8.92;100.00;101738.84;5294143;28;20028;-73
2022/11/10 02:36:34;;;;;;;17.93;4.07;;;;;;;8.91;100.00;101739.78;5295564;28;20124;-73
2022/11/10 02:39:05;;;;;;;16.53;3.40;;;;;;;8.86;100.00;101739.09;5295620;28;20016;-73
2022/11/10 02:41:36;;;;;;;21.40;4.87;;;;;;;8.91;100.00;101757.19;5295228;28;20031;-73
2022/11/10 02:44:08;;;;;;;16.90;4.20;;;;;;;8.91;100.00;101762.41;5272272;28;20029;-73
2022/11/10 02:46:39;;;;;;;19.17;3.73;;;;;;;8.85;100.00;101767.88;5273906;28;20093;-73
2022/11/10 02:49:10;;;;;;;13.30;3.03;;;;;;;8.80;100.00;101762.81;5273323;28;20024;-73
2022/11/10 02:51:42;;;;;;;18.17;4.53;;;;;;;8.90;100.00;101774.63;5273938;28;20043;-73
2022/11/10 02:54:13;;;;;;;14.07;2.93;;;;;;;8.87;100.00;101769.50;5272819;28;20052;-73
2022/11/10 02:56:44;;;;;;;23.27;3.53;;;;;;;8.83;100.00;101770.56;5274114;28;20024;-74
2022/11/10 02:59:16;;;;;;;14.43;3.53;;;;;;;8.83;100.00;101765.34;5274101;28;20031;-74
2022/11/10 03:01:47;;;;;;;17.63;2.97;;;;;;;8.78;100.00;101752.44;5277775;28;20569;-73
2022/11/10 03:04:18;;;;;;;17.20;4.00;;;;;;;8.80;100.00;101755.84;5277261;28;20036;-73
2022/11/10 03:06:50;;;;;;;21.13;4.13;;;;;;;8.75;100.00;101756.91;5278106;28;20027;-73
2022/11/10 03:09:21;;;;;;;25.83;4.03;;;;;;;8.73;100.00;101763.97;5278143;28;20036;-73
2022/11/10 03:11:52;;;;;;;14.80;4.20;;;;;;;8.76;100.00;101771.69;5277709;28;20086;-73
2022/11/10 03:14:24;;;;;;;16.27;3.50;;;;;;;8.76;100.00;101775.13;5278108;28;20056;-73
2022/11/10 03:16:55;;;;;;;16.17;4.13;;;;;;;8.70;100.00;101775.38;5276551;28;20035;-74
2022/11/10 03:19:26;;;;;;;13.47;3.50;;;;;;;8.66;100.00;101771.16;5277865;28;20028;-73
2022/11/10 03:21:57;;;;;;;17.57;4.20;;;;;;;8.70;100.00;101791.91;5277814;28;20032;-73
2022/11/10 03:24:29;;;;;;;16.07;3.63;;;;;;;8.66;100.00;101773.78;5277919;28;20081;-73
2022/11/10 03:27:00;;;;;;;15.37;3.53;;;;;;;8.70;100.00;101789.28;5278103;28;20024;-73
2022/11/10 03:29:31;;;;;;;14.43;3.30;;;;;;;8.61;100.00;101791.38;5298715;28;20559;-72
2022/11/10 03:32:03;;;;;;;12.77;3.77;;;;;;;8.66;100.00;101794.66;5297953;28;20034;-73
2022/11/10 03:34:34;;;;;;;15.27;3.50;;;;;;;8.62;100.00;101806.16;5299001;28;20475;-73
2022/11/10 03:37:05;;;;;;;21.83;3.87;;;;;;;8.58;100.00;101813.25;5298267;28;20020;-74
2022/11/10 03:39:38;;;;;;;17.30;4.23;;;;;;;8.58;100.00;101815.84;5298888;28;20068;-73
2022/11/10 03:42:09;;;;;;;23.23;4.33;;;;;;;8.55;100.00;101813.31;5299991;28;20028;-74
2022/11/10 03:44:40;;;;;;;16.03;3.63;;;;;;;8.52;100.00;101808.22;5283997;28;20122;-74
2022/11/10 03:47:11;;;;;;;12.03;3.47;;;;;;;8.56;100.00;101825.50;5297356;28;20039;-73
2022/11/10 03:49:43;;;;;;;21.57;4.07;;;;;;;8.53;100.00;101830.78;5298214;28;20028;-74
2022/11/10 03:52:15;;;;;;;12.87;3.87;;;;;;;8.51;100.00;101830.00;5298700;28;20027;-74
2022/11/10 03:54:46;;;;;;;13.40;3.23;;;;;;;8.45;100.00;101829.31;5297850;28;20695;-74
2022/11/10 03:57:17;;;;;;;11.17;3.67;;;;;;;8.45;100.00;101833.66;5280067;28;20027;-74
2022/11/10 03:59:49;;;;;;;17.03;3.50;;;;;;;8.41;100.00;101832.91;5298358;28;20042;-73
2022/11/10 04:02:20;;;;;;;16.93;3.57;;;;;;;8.50;100.00;101846.56;5297305;28;20032;-74
2022/11/10 04:10:34;;;;;;;17.50;4.47;;;;;;;8.37;100.00;101844.38;5297987;28;20421;-73
2022/11/10 04:15:56;;;;;;;15.47;3.43;;;;;;;8.37;100.00;101861.78;5297769;28;20040;-74
2022/11/10 04:18:28;;;;;;;15.67;4.13;;;;;;;8.37;100.00;101854.81;5297624;28;20024;-74
2022/11/10 04:21:01;;;;;;;14.30;3.57;;;;;;;8.36;100.00;101868.75;5297703;28;20679;-74
2022/11/10 04:23:35;;;;;;;17.43;3.97;;;;;;;8.36;100.00;101876.59;5297765;28;20028;-74
2022/11/10 04:26:29;;;;;;;23.05;4.35;;;;;;;8.34;100.00;101879.25;5296892;28;20024;-74
2022/11/10 04:29:05;;;;;;;13.77;3.93;;;;;;;8.31;100.00;101881.97;5297716;28;20036;-73
2022/11/10 04:31:40;;;;;;;19.87;4.93;;;;;;;8.33;100.00;101881.94;5296755;28;20637;-73
2022/11/10 04:34:14;;;;;;;21.13;4.87;;;;;;;8.29;100.00;101878.56;5279301;28;20031;-74
2022/11/10 04:36:45;;;;;;;24.53;5.43;;;;;;;8.33;100.00;101889.75;5297208;28;20024;-74
2022/11/10 04:39:16;;;;;;;16.83;4.40;;;;;;;8.28;100.00;101895.13;5297836;28;20470;-74
2022/11/10 04:41:48;;;;;;;13.20;3.93;;;;;;;8.22;100.00;101884.91;5296704;28;20066;-74
2022/11/10 04:44:19;;;;;;;14.47;4.43;;;;;;;8.22;100.00;101896.19;5297431;28;20093;-74
2022/11/10 04:46:50;;;;;;;21.30;3.83;;;;;;;8.26;100.00;101899.56;5295780;28;20103;-73
2022/11/10 04:49:22;;;;;;;21.57;4.33;;;;;;;8.30;100.00;101913.34;5297487;28;20082;-73
2022/11/10 04:51:53;;;;;;;20.20;4.70;;;;;;;8.23;100.00;101907.50;5296713;28;20032;-74
2022/11/10 04:54:25;;;;;;;19.93;4.23;;;;;;;8.25;100.00;101920.47;5296990;28;20036;-72
2022/11/10 04:56:56;;;;;;;25.13;4.63;;;;;;;8.23;100.00;101913.56;5296837;28;20032;-74
2022/11/10 04:59:27;;;;;;;19.37;3.83;;;;;;;8.23;100.00;101928.38;5297124;28;20081;-74
2022/11/10 05:01:59;;;;;;;18.73;4.77;;;;;;;8.25;100.00;101925.69;5295933;28;20028;-74
2022/11/10 05:04:30;;;;;;;18.73;3.83;;;;;;;8.19;100.00;101922.38;5297321;28;20044;-74
2022/11/10 05:07:01;;;;;;;20.40;4.20;;;;;;;8.25;100.00;101930.94;5295873;28;20503;-74
2022/11/10 05:09:32;;;;;;;16.07;4.33;;;;;;;8.21;100.00;101924.94;5296939;28;20094;-74
2022/11/10 05:12:04;;;;;;;14.70;3.53;;;;;;;8.22;100.00;101931.91;5296217;28;20468;-73
2022/11/10 05:14:35;;;;;;;24.90;6.27;;;;;;;8.26;100.00;101943.91;5296934;28;20032;-74
2022/11/10 05:17:06;;;;;;;15.13;3.80;;;;;;;8.22;100.00;101948.38;5295880;28;20035;-73
2022/11/10 05:19:37;;;;;;;19.10;4.23;;;;;;;8.21;100.00;101951.91;5296634;28;20028;-74
2022/11/10 05:22:09;;;;;;;15.77;4.87;;;;;;;8.11;100.00;101940.06;5296467;28;20080;-74
2022/11/10 05:24:40;;;;;;;15.40;4.90;;;;;;;8.19;100.00;101953.72;5295594;28;20027;-73
2022/11/10 05:27:11;;;;;;;14.63;3.87;;;;;;;8.14;100.00;101941.69;5296705;28;20192;-74
2022/11/10 05:29:42;;;;;;;19.83;3.60;;;;;;;8.19;100.00;101953.72;5295634;28;20032;-74
2022/11/10 05:32:14;;;;;;;20.60;5.23;;;;;;;8.18;100.00;101951.16;5295600;28;20020;-74
2022/11/10 05:34:45;;;;;;;14.07;3.87;;;;;;;8.16;100.00;101948.59;5296086;28;20032;-74
2022/11/10 05:37:16;;;;;;;18.20;3.87;;;;;;;8.05;100.00;101937.63;5277823;28;20027;-74
2022/11/10 05:39:47;;;;;;;20.90;3.57;;;;;;;8.03;100.00;101931.63;5296265;28;20035;-74
2022/11/10 05:42:19;;;;;;;18.40;4.67;;;;;;;8.08;100.00;101930.56;5296151;28;20520;-74
2022/11/10 05:44:50;;;;;;;17.30;4.03;;;;;;;8.08;100.00;101933.16;5296424;28;20385;-74
2022/11/10 05:47:21;;;;;;;21.87;4.33;;;;;;;8.08;100.00;101940.16;5295367;28;20068;-74
2022/11/10 05:49:52;;;;;;;18.00;4.33;;;;;;;8.06;100.00;101940.22;5295391;28;20016;-74
2022/11/10 05:52:24;;;;;;;21.47;5.23;;;;;;;8.06;100.00;101957.63;5296191;28;20028;-73
2022/11/10 05:54:55;;;;;;;12.20;3.60;;;;;;;8.08;100.00;101971.47;5295408;28;20105;-73
2022/11/10 05:57:26;;;;;;;20.17;4.47;;;;;;;8.06;100.00;101971.53;5296316;28;20386;-74
2022/11/10 05:59:58;;;;;;;16.17;4.67;;;;;;;8.01;100.00;101964.72;5277023;28;20027;-73
2022/11/10 06:02:29;;;;;;;19.97;4.83;;;;;;;8.08;100.00;101974.09;5294985;28;20032;-74
2022/11/10 06:05:00;;;;;;;21.43;4.63;;;;;;;8.10;100.00;101969.66;5295742;28;20040;-74
2022/11/10 06:07:31;;;;;;;22.37;4.47;;;;;;;8.02;100.00;101971.66;5294488;28;20200;-73
2022/11/10 06:10:03;;;;;;;15.97;3.33;;;;;;;8.03;100.00;101979.41;5295726;28;20541;-74
2022/11/10 06:12:35;;;;;;;17.07;3.63;;;;;;;8.01;100.00;101981.25;5296044;28;20081;-73
2022/11/10 06:15:08;;;;;;;15.00;3.90;;;;;;;8.01;100.00;101985.59;5295064;28;20727;-74
2022/11/10 06:17:40;;;;;;;15.67;3.13;;;;;;;7.98;100.00;102000.44;5294836;28;20027;-73
2022/11/10 06:20:13;;;;;;;17.23;4.03;;;;;;;7.97;100.00;102005.72;5276856;28;20020;-74
2022/11/10 06:22:57;;;;;;;22.80;5.20;;;;;;;8.00;100.00;101995.19;5295694;28;20059;-74
2022/11/10 06:25:30;;;;;;;14.98;3.90;;;;;;;8.02;100.00;101997.72;5277452;28;20022;-74
2022/11/10 06:28:03;;;;;;;15.60;3.73;;;;;;;8.01;100.00;102001.25;5295626;28;20337;-74
2022/11/10 06:30:36;;;;;;;16.93;4.70;;;;;;;8.02;100.00;102005.56;5295650;28;20028;-74
2022/11/10 06:33:08;;;;;;;24.80;5.07;;;;;;;7.92;100.00;101998.03;5293886;28;20574;-74
2022/11/10 06:35:39;;;;;;;15.37;3.80;;;;;;;7.67;100.00;101982.22;5295279;28;20107;-73
2022/11/10 06:38:11;;;;;;;13.90;3.50;;;;;;;7.90;100.00;102014.59;5295435;28;20028;-76
2022/11/10 06:40:42;;;;;;;17.70;4.73;;;;;;;7.89;100.00;102028.56;5297952;28;20047;-75
2022/11/10 06:43:14;;;;;;;19.43;4.23;;;;;;;7.89;100.00;102024.19;5278146;28;20022;-76
2022/11/10 06:45:45;;;;;;;14.00;3.23;;;;;;;7.81;100.00;102034.00;5275579;28;20032;-75
2022/11/10 06:48:16;;;;;;;14.73;3.20;;;;;;;7.91;100.00;102038.03;5288194;28;20098;-76
2022/11/10 06:50:48;;;;;;;20.47;4.30;;;;;;;7.92;100.00;102049.34;5293415;28;20067;-75
2022/11/10 06:53:19;;;;;;;13.93;3.80;;;;;;;7.90;100.00;102046.78;5278880;28;20051;-75
2022/11/10 06:55:50;;;;;;;13.83;4.27;;;;;;;7.91;100.00;102058.03;5290884;28;20090;-75
2022/11/10 06:58:21;;;;;;;26.60;6.20;;;;;;;7.92;100.00;102060.63;5291020;28;20450;-74
2022/11/10 07:00:53;;;;;;;19.50;4.03;;;;;;;7.90;100.00;102062.44;5293595;28;20036;-74
2022/11/10 07:03:24;;;;;;;21.93;3.97;;;;;;;7.71;100.00;102036.03;5276206;28;20085;-75
2022/11/10 07:05:57;;;;;;;19.10;3.63;;;;;;;7.89;100.00;102065.91;5290137;28;20034;-75
2022/11/10 07:08:28;;;;;;;13.10;4.07;;;;;;;7.82;100.00;102065.25;5291432;28;20473;-74
2022/11/10 07:11:00;;;;;;;19.53;3.67;;;;;;;7.90;100.00;102064.19;5288284;28;20111;-74
2022/11/10 07:13:31;;;;;;;20.97;4.27;;;;;;;7.91;100.00;102071.94;5279658;28;20085;-74
2022/11/10 07:16:03;;;;;;;19.60;4.10;;;;;;;7.89;100.00;102076.34;5296224;28;20111;-74
2022/11/10 07:18:35;;;;;;;17.77;4.10;;;;;;;7.83;100.00;102071.31;5293536;28;20020;-74
2022/11/10 07:21:07;;;;;;;17.60;4.37;;;;;;;7.91;100.00;102097.16;5294991;28;20578;-74
2022/11/10 07:23:38;;;;;;;16.80;4.07;;;;;;;7.98;100.00;102091.75;5295520;28;20560;-74
2022/11/10 07:26:09;;;;;;;23.13;4.40;;;;;;;7.86;100.00;102089.50;5295509;28;20048;-74
2022/11/10 07:28:41;;;;;;;20.10;4.67;;;;;;;7.99;100.00;102101.28;5295832;28;20088;-74
2022/11/10 07:31:12;;;;;;;20.73;4.20;;;;;;;7.94;100.00;102103.16;5293436;28;20118;-76
2022/11/10 07:33:46;;;;;;;20.80;5.30;;;;;;;8.06;100.00;102122.00;5294103;28;20111;-74
2022/11/10 07:36:17;;;;;;;22.77;4.77;;;;;;;8.05;100.00;102125.47;5294726;28;20027;-74
2022/11/10 07:38:49;;;;;;;24.57;3.87;;;;;;;8.04;100.00;102129.00;5275900;28;20291;-74
2022/11/10 07:41:20;;;;;;;19.10;4.33;;;;;;;7.98;100.00;102116.97;5294672;28;20035;-74
2022/11/10 07:43:51;;;;;;;23.03;4.83;;;;;;;8.11;100.00;102120.09;5293030;28;20024;-74
2022/11/10 07:46:23;;;;;;;18.30;5.13;;;;;;;8.12;100.00;102121.81;5285115;28;20467;-75
2022/11/10 07:48:54;;;;;;;15.43;3.97;;;;;;;8.19;100.00;102125.09;5276629;28;20028;-75
2022/11/10 07:51:26;;;;;;;27.60;5.17;;;;;;;8.23;100.00;102127.59;5287508;28;20475;-74
2022/11/10 07:53:57;;;;;;;19.63;4.93;;;;;;;8.25;100.00;102130.16;5294565;28;20035;-73
2022/11/10 07:56:28;;;;;;;22.30;4.33;;;;;;;8.20;100.00;102130.25;5296628;28;20077;-74
2022/11/10 07:59:00;;;;;;;17.37;4.93;;;;;;;8.29;100.00;102125.69;5294573;28;20028;-74
2022/11/10 08:01:32;;;;;;;24.07;5.37;;;;;;;8.28;100.00;102130.03;5289348;28;20055;-74
2022/11/10 08:04:04;;;;;;;18.90;4.23;;;;;;;8.32;100.00;102141.25;5296915;28;20028;-74
2022/11/10 08:06:35;;;;;;;16.43;4.20;;;;;;;8.35;100.00;102146.38;5279351;28;20047;-74
2022/11/10 08:09:06;;;;;;;14.70;3.57;;;;;;;8.44;100.00;102146.13;5296807;28;20076;-74
2022/11/10 08:11:38;;;;;;;18.40;4.43;;;;;;;8.44;100.00;102151.34;5297981;28;20068;-75
2022/11/10 08:14:09;;;;;;;15.57;4.37;;;;;;;8.47;100.00;102150.38;5298058;28;20035;-74
2022/11/10 08:16:40;;;;;;;17.80;4.43;;;;;;;8.54;100.00;102166.72;5296714;28;20111;-74
2022/11/10 08:19:11;;;;;;;23.97;4.83;;;;;;;8.59;100.00;102180.53;5297804;28;20051;-75
2022/11/10 08:21:43;;;;;;;23.20;4.70;;;;;;;8.63;100.00;102176.06;5296907;28;20028;-75
2022/11/10 08:24:14;;;;;;;14.83;4.43;;;;;;;8.64;100.00;102173.41;5297558;28;20028;-74
2022/11/10 08:26:45;;;;;;;16.60;3.57;;;;;;;8.67;100.00;102175.94;5297375;28;20024;-73
2022/11/10 08:29:17;;;;;;;22.27;4.30;;;;;;;8.80;100.00;102178.16;5297923;28;20028;-74
2022/11/10 08:31:48;;;;;;;22.23;4.67;;;;;;;8.83;100.00;102184.16;5278241;28;20410;-74
2022/11/10 08:34:20;;;;;;;18.10;4.30;;;;;;;8.90;100.00;102189.19;5297448;28;20059;-74
2022/11/10 08:36:52;;;;;;;20.73;4.37;;;;;;;8.89;100.00;102192.69;5296182;28;20024;-74
2022/11/10 08:39:23;;;;;;;18.80;5.30;;;;;;;8.84;100.00;102174.56;5296771;28;20558;-78
2022/11/10 08:41:55;;;;;;;16.03;4.73;;;;;;;8.90;100.00;102176.13;5296577;28;20380;-76
2022/11/10 08:44:26;;;;;;;15.47;4.43;;;;;;;9.00;100.00;102185.41;5297049;28;20097;-78
2022/11/10 08:46:57;;;;;;;21.80;4.50;;;;;;;9.03;100.00;102184.44;5300022;28;20024;-74
2022/11/10 08:49:29;;;;;;;18.83;4.23;;;;;;;9.11;100.00;102177.19;5298748;28;20020;-79
2022/11/10 08:52:00;;;;;;;16.83;3.90;;;;;;;9.18;100.00;102194.38;5296704;28;20049;-78
2022/11/10 08:54:31;;;;;;;18.97;4.87;;;;;;;9.28;100.00;102189.75;5296566;28;20024;-79
2022/11/10 08:57:03;;;;;;;22.63;4.00;;;;;;;9.28;100.00;102194.97;5278562;28;20024;-78
2022/11/10 08:59:34;;;;;;;22.50;5.07;;;;;;;9.29;100.00;102199.28;5277782;28;20031;-77
2022/11/10 09:02:08;;;;;;;19.33;4.70;;;;;;;9.38;100.00;102200.75;5296235;28;20072;-80
2022/11/10 09:04:40;;;;;;;16.03;4.50;;;;;;;9.35;100.00;102182.53;5296804;28;20051;-80
2022/11/10 09:07:11;;;;;;;16.30;4.27;;;;;;;9.54;100.00;102210.69;5296104;28;20655;-76
2022/11/10 09:09:43;;;;;;;18.83;3.60;;;;;;;9.50;100.00;102202.09;5295212;28;20091;-76
2022/11/10 09:12:14;;;;;;;25.37;5.67;;;;;;;9.52;100.00;102209.88;5296436;28;20089;-77
2022/11/10 09:14:45;;;;;;;25.20;5.37;;;;;;;9.64;100.00;102216.47;5295835;28;20028;-77
2022/11/10 09:17:16;;;;;;;18.63;5.13;;;;;;;9.71;100.00;102219.72;5276956;28;20035;-77
2022/11/10 09:19:48;;;;;;;25.57;5.27;;;;;;;10.43;100.00;102219.81;5276976;28;20024;-78
2022/11/10 09:22:19;;;;;;;11.97;3.63;;;;;;;11.85;100.00;102225.59;5278057;28;20036;-83
2022/11/10 09:24:50;;;;;;;17.83;3.73;;;;;;;13.20;100.00;102222.19;5295817;28;20042;-78
2022/11/10 09:27:22;;;;;;;19.13;4.43;;;;;;;14.09;100.00;102224.78;5296453;28;20031;-81
2022/11/10 09:29:53;;;;;;;13.50;4.00;;;;;;;15.11;100.00;102225.47;5295092;28;20059;-81
2022/11/10 09:32:24;;;;;;;16.97;4.30;;;;;;;15.33;100.00;102221.59;5275841;28;20024;-78
2022/11/10 09:34:55;;;;;;;14.23;4.03;;;;;;;15.66;100.00;102217.91;5277534;28;20102;-78
2022/11/10 09:37:27;;;;;;;12.03;3.17;;;;;;;15.18;100.00;102224.19;5295952;28;20036;-79
2022/11/10 09:39:58;;;;;;;15.63;4.03;;;;;;;14.40;100.00;102217.88;5278170;28;20036;-77
2022/11/10 09:42:36;;;;;;;18.03;3.57;;;;;;;14.29;100.00;102226.41;5295648;28;20125;-76
2022/11/10 09:45:24;;;;;;;17.23;3.53;;;;;;;13.95;100.00;102223.75;5294206;28;20024;-85
2022/11/10 09:48:11;;;;;;;15.20;3.90;;;;;;;13.98;100.00;102228.03;5293053;28;20036;-85
2022/11/10 09:50:45;;;;;;;13.43;3.33;;;;;;;13.67;100.00;102231.28;5291816;28;20474;-78
2022/11/10 09:53:26;;;;;;;15.43;4.07;;;;;;;13.54;100.00;102251.28;5292153;28;20032;-80
2022/11/10 09:56:01;;;;;;;17.90;4.33;;;;;;;13.45;100.00;102228.88;5270220;28;20084;-82
2022/11/10 09:58:44;;;;;;;12.83;3.90;;;;;;;13.50;100.00;102244.41;5275117;28;20370;-83
2022/11/10 10:01:43;;;;;;;15.87;4.30;;;;;;;13.42;100.00;102236.91;5286200;28;20472;-79
2022/11/10 10:04:27;;;;;;;19.90;4.67;;;;;;;13.27;100.00;102223.59;5275821;28;20423;-80
2022/11/10 10:07:13;;;;;;;17.80;3.72;;;;;;;13.30;100.00;102235.72;5275727;28;20028;-77
2022/11/10 10:10:03;;;;;;;21.23;4.70;;;;;;;13.17;100.00;102233.72;5274955;28;20036;-83
2022/11/10 10:12:58;;;;;;;21.80;4.70;;;;;;;13.11;100.00;102238.44;5277003;28;20046;-79
2022/11/10 10:15:52;;;;;;;17.42;4.65;;;;;;;13.07;100.00;102238.56;5276124;28;20028;-79
2022/11/10 10:18:39;;;;;;;18.08;4.05;;;;;;;13.11;100.00;102248.94;5293192;28;20032;-81
2022/11/10 10:21:35;;;;;;;20.73;4.37;;;;;;;13.14;100.00;102254.06;5294705;28;20020;-77
2022/11/10 10:24:12;;;;;;;18.77;4.97;;;;;;;13.11;100.00;102251.59;5293505;28;20036;-81
2022/11/10 10:26:52;;;;;;;15.77;3.93;;;;;;;13.07;100.00;102253.50;5294493;28;20066;-79
2022/11/10 10:29:29;;;;;;;18.23;4.17;;;;;;;13.01;100.00;102270.41;5293687;28;20031;-79
2022/11/10 10:32:01;;;;;;;17.73;3.93;;;;;;;12.97;100.00;102263.59;5274874;28;20111;-78
2022/11/10 10:34:33;;;;;;;14.00;4.03;;;;;;;13.07;100.00;102258.75;5275416;28;20169;-79
2022/11/10 10:37:34;;;;;;;16.90;5.03;;;;;;;12.98;100.00;102272.34;5292763;28;20024;-79
2022/11/10 10:40:12;;;;;;;16.47;3.60;;;;;;;13.22;100.00;102288.72;5287748;28;20024;-79
2022/11/10 10:42:44;;;;;;;14.07;3.33;;;;;;;13.31;100.00;102290.94;5273135;28;20032;-79
2022/11/10 10:45:21;;;;;;;16.63;3.60;;;;;;;13.34;100.00;102302.22;5294111;28;20085;-79
2022/11/10 10:47:54;;;;;;;13.50;3.97;;;;;;;13.34;100.00;102312.72;5291844;28;20499;-75
2022/11/10 10:50:33;;;;;;;11.40;3.77;;;;;;;13.43;100.00;102310.53;5275323;28;20012;-78
2022/11/10 10:53:13;;;;;;;15.23;2.77;;;;;;;13.42;100.00;102318.50;5293458;28;20474;-78
2022/11/10 10:55:45;;;;;;;16.10;3.87;;;;;;;13.49;100.00;102296.19;5292292;28;20040;-78
2022/11/10 10:58:20;;;;;;;11.40;3.80;;;;;;;13.45;100.00;102310.44;5275662;28;20074;-76
2022/11/10 11:01:02;;;;;;;14.13;5.03;;;;;;;13.59;100.00;102307.19;5274372;28;20101;-77
2022/11/10 11:03:33;;;;;;;9.67;2.70;;;;;;;13.70;100.00;102313.69;5294048;28;20034;-76
2022/11/10 11:06:06;;;;;;;14.53;3.17;;;;;;;13.69;100.00;102307.56;5293476;28;20028;-76
2022/11/10 11:08:38;;;;;;;8.37;2.60;;;;;;;13.70;100.00;102309.25;5294058;28;20482;-74
2022/11/10 11:11:10;;;;;;;13.93;3.23;;;;;;;13.77;100.00;102302.75;5293848;28;20032;-75
2022/11/10 11:13:41;;;;;;;12.13;3.23;;;;;;;13.74;100.00;102276.59;5294031;28;20024;-75
2022/11/10 11:16:12;;;;;;;11.03;3.20;;;;;;;13.77;100.00;102292.22;5292637;28;20050;-73
2022/11/10 11:18:43;;;;;;;12.17;2.97;;;;;;;13.75;100.00;102307.25;5293702;28;20043;-74
2022/11/10 11:21:33;;;;;;;11.53;3.13;;;;;;;13.87;100.00;102307.56;5295648;28;20028;-74
2022/11/10 11:24:21;;;;;;;13.63;3.17;;;;;;;13.86;100.00;102305.88;5298000;28;20028;-74
2022/11/10 11:27:25;;;;;;;12.70;3.00;;;;;;;13.85;100.00;102304.16;5296964;28;20565;-74
2022/11/10 11:29:59;;;;;;;14.67;4.10;;;;;;;13.93;100.00;102296.72;5238529;28;20043;-74
2022/11/10 11:32:49;;;;;;;10.45;2.60;;;;;;;14.00;100.00;102294.63;5278372;28;20039;-74
2022/11/10 11:36:07;;;;;;;15.20;3.17;;;;;;;14.10;100.00;102305.56;5297545;28;20127;-74
2022/11/10 11:39:02;;;;;;;17.93;3.47;;;;;;;14.12;100.00;102320.34;5279322;28;20028;-74
2022/11/10 11:41:49;;;;;;;14.45;3.00;;;;;;;14.12;100.00;102319.50;5297304;28;20466;-74
2022/11/10 11:44:32;;;;;;;11.40;2.40;;;;;;;14.20;100.00;102316.47;5278797;28;20023;-74
2022/11/10 11:47:06;;;;;;;12.83;3.50;;;;;;;14.18;100.00;102329.72;5295826;28;20066;-74
2022/11/10 11:50:29;;;;;;;10.43;2.50;;;;;;;14.23;100.00;102327.69;5277801;28;20032;-73
2022/11/10 11:53:22;;;;;;;12.57;2.97;;;;;;;14.12;100.00;102330.88;5244769;28;20127;-74